sensor_id;sensor_type;location;lat;lon;timestamp;pressure;altitude;pressure_sealevel;temperature;humidity
9695;BME280;4690;52.422;13.486;2023-05-20T00:05:53;102316.91;;;14.56;60.40
9695;BME280;4690;52.422;13.486;2023-05-20T00:08:18;102316.47;;;14.52;60.66
9695;BME280;4690;52.422;13.486;2023-05-20T00:10:44;102323.66;;;14.47;60.97
9695;BME280;4690;52.422;13.486;2023-05-20T00:13:10;102319.41;;;14.44;61.18
9695;BME280;4690;52.422;13.486;2023-05-20T00:15:36;102315.41;;;14.40;60.98
9695;BME280;4690;52.422;13.486;2023-05-20T00:18:02;102315.84;;;14.37;61.48
9695;BME280;4690;52.422;13.486;2023-05-20T00:20:28;102318.78;;;14.35;61.78
9695;BME280;4690;52.422;13.486;2023-05-20T00:22:54;102305.88;;;14.36;61.79
9695;BME280;4690;52.422;13.486;2023-05-20T00:25:20;102313.09;;;14.30;62.02
9695;BME280;4690;52.422;13.486;2023-05-20T00:27:46;102313.09;;;14.30;62.07
9695;BME280;4690;52.422;13.486;2023-05-20T00:30:12;102316.06;;;14.29;62.25
9695;BME280;4690;52.422;13.486;2023-05-20T00:32:38;102318.81;;;14.29;62.06
9695;BME280;4690;52.422;13.486;2023-05-20T00:35:04;102320.72;;;14.22;62.50
9695;BME280;4690;52.422;13.486;2023-05-20T00:37:33;102319.25;;;14.19;62.65
9695;BME280;4690;52.422;13.486;2023-05-20T00:39:59;102312.88;;;14.12;62.89
9695;BME280;4690;52.422;13.486;2023-05-20T00:42:27;102321.16;;;14.12;63.11
9695;BME280;4690;52.422;13.486;2023-05-20T00:44:54;102313.06;;;14.10;63.17
9695;BME280;4690;52.422;13.486;2023-05-20T00:47:28;102311.16;;;14.04;63.37
9695;BME280;4690;52.422;13.486;2023-05-20T00:49:55;102315.84;;;14.04;63.45
9695;BME280;4690;52.422;13.486;2023-05-20T00:52:22;102315.19;;;14.02;63.57
9695;BME280;4690;52.422;13.486;2023-05-20T00:54:49;102306.31;;;14.00;63.72
9695;BME280;4690;52.422;13.486;2023-05-20T00:57:18;102312.03;;;13.98;63.81
9695;BME280;4690;52.422;13.486;2023-05-20T00:59:44;102308.63;;;13.96;63.92
9695;BME280;4690;52.422;13.486;2023-05-20T01:02:10;102313.72;;;13.93;64.29
9695;BME280;4690;52.422;13.486;2023-05-20T01:04:36;102317.53;;;13.92;64.24
9695;BME280;4690;52.422;13.486;2023-05-20T01:07:04;102306.28;;;13.86;64.42
9695;BME280;4690;52.422;13.486;2023-05-20T01:09:32;102312.00;;;13.85;64.75
9695;BME280;4690;52.422;13.486;2023-05-20T01:14:47;102299.06;;;13.79;65.23
9695;BME280;4690;52.422;13.486;2023-05-20T01:17:15;102302.91;;;13.78;65.23
9695;BME280;4690;52.422;13.486;2023-05-20T01:19:47;102291.03;;;13.77;65.64
9695;BME280;4690;52.422;13.486;2023-05-20T01:22:14;102299.28;;;13.71;65.80
9695;BME280;4690;52.422;13.486;2023-05-20T01:24:45;102296.28;;;13.65;66.02
9695;BME280;4690;52.422;13.486;2023-05-20T01:27:14;102291.84;;;13.64;66.38
9695;BME280;4690;52.422;13.486;2023-05-20T01:29:41;102289.09;;;13.58;66.55
9695;BME280;4690;52.422;13.486;2023-05-20T01:32:34;102296.91;;;13.54;66.64
9695;BME280;4690;52.422;13.486;2023-05-20T01:35:02;102295.03;;;13.55;66.90
9695;BME280;4690;52.422;13.486;2023-05-20T01:37:30;102286.09;;;13.53;66.96
9695;BME280;4690;52.422;13.486;2023-05-20T01:39:57;102280.38;;;13.54;67.02
9695;BME280;4690;52.422;13.486;2023-05-20T01:42:25;102282.28;;;13.54;67.24
9695;BME280;4690;52.422;13.486;2023-05-20T01:44:52;102286.31;;;13.51;67.33
9695;BME280;4690;52.422;13.486;2023-05-20T01:47:18;102288.63;;;13.48;67.71
9695;BME280;4690;52.422;13.486;2023-05-20T01:49:44;102285.88;;;13.48;67.82
9695;BME280;4690;52.422;13.486;2023-05-20T01:52:14;102288.44;;;13.49;68.22
9695;BME280;4690;52.422;13.486;2023-05-20T01:54:40;102281.22;;;13.48;67.85
9695;BME280;4690;52.422;13.486;2023-05-20T01:57:05;102279.53;;;13.47;67.98
9695;BME280;4690;52.422;13.486;2023-05-20T01:59:31;102279.72;;;13.39;68.39
9695;BME280;4690;52.422;13.486;2023-05-20T02:01:57;102273.34;;;13.32;68.77
9695;BME280;4690;52.422;13.486;2023-05-20T02:04:23;102280.97;;;13.30;68.65
9695;BME280;4690;52.422;13.486;2023-05-20T02:06:48;102279.63;;;13.19;69.17
9695;BME280;4690;52.422;13.486;2023-05-20T02:09:14;102283.47;;;13.24;69.33
9695;BME280;4690;52.422;13.486;2023-05-20T02:11:40;102276.50;;;13.29;69.12
9695;BME280;4690;52.422;13.486;2023-05-20T02:14:06;102271.03;;;13.35;68.68
9695;BME280;4690;52.422;13.486;2023-05-20T02:16:31;102275.28;;;13.38;68.81
9695;BME280;4690;52.422;13.486;2023-05-20T02:18:57;102279.28;;;13.35;69.00
9695;BME280;4690;52.422;13.486;2023-05-20T02:21:24;102270.16;;;13.28;69.31
9695;BME280;4690;52.422;13.486;2023-05-20T02:23:50;102271.41;;;13.26;69.60
9695;BME280;4690;52.422;13.486;2023-05-20T02:26:16;102273.28;;;13.25;69.41
9695;BME280;4690;52.422;13.486;2023-05-20T02:28:42;102267.78;;;13.25;69.49
9695;BME280;4690;52.422;13.486;2023-05-20T02:31:12;102255.13;;;13.31;69.40
9695;BME280;4690;52.422;13.486;2023-05-20T02:33:37;102267.22;;;13.30;69.48
9695;BME280;4690;52.422;13.486;2023-05-20T02:36:04;102265.28;;;13.30;69.61
9695;BME280;4690;52.422;13.486;2023-05-20T02:38:29;102270.38;;;13.33;69.49
9695;BME280;4690;52.422;13.486;2023-05-20T02:40:56;102262.13;;;13.33;69.62
9695;BME280;4690;52.422;13.486;2023-05-20T02:43:27;102276.31;;;13.37;69.64
9695;BME280;4690;52.422;13.486;2023-05-20T02:45:52;102272.09;;;13.41;69.50
9695;BME280;4690;52.422;13.486;2023-05-20T02:48:18;102277.19;;;13.44;68.93
9695;BME280;4690;52.422;13.486;2023-05-20T02:50:45;102287.31;;;13.37;69.35
9695;BME280;4690;52.422;13.486;2023-05-20T02:53:11;102281.81;;;13.37;69.35
9695;BME280;4690;52.422;13.486;2023-05-20T02:55:39;102279.72;;;13.39;69.31
9695;BME280;4690;52.422;13.486;2023-05-20T02:58:05;102278.47;;;13.41;69.54
9695;BME280;4690;52.422;13.486;2023-05-20T03:00:30;102280.16;;;13.42;69.50
9695;BME280;4690;52.422;13.486;2023-05-20T03:02:57;102287.97;;;13.45;69.29
9695;BME280;4690;52.422;13.486;2023-05-20T03:05:25;102295.44;;;13.52;69.09
9695;BME280;4690;52.422;13.486;2023-05-20T03:07:52;102292.03;;;13.50;69.05
9695;BME280;4690;52.422;13.486;2023-05-20T03:10:17;102286.72;;;13.48;69.51
9695;BME280;4690;52.422;13.486;2023-05-20T03:12:43;102292.69;;;13.52;69.61
9695;BME280;4690;52.422;13.486;2023-05-20T03:15:09;102293.72;;;13.51;69.60
9695;BME280;4690;52.422;13.486;2023-05-20T03:17:35;102301.75;;;13.45;69.70
9695;BME280;4690;52.422;13.486;2023-05-20T03:20:01;102297.31;;;13.51;69.79
9695;BME280;4690;52.422;13.486;2023-05-20T03:22:31;102295.44;;;13.52;69.91
9695;BME280;4690;52.422;13.486;2023-05-20T03:24:57;102292.47;;;13.53;70.10
9695;BME280;4690;52.422;13.486;2023-05-20T03:27:25;102295.22;;;13.60;69.85
9695;BME280;4690;52.422;13.486;2023-05-20T03:29:51;102294.38;;;13.59;69.84
9695;BME280;4690;52.422;13.486;2023-05-20T03:32:19;102299.28;;;13.64;69.76
9695;BME280;4690;52.422;13.486;2023-05-20T03:34:45;102298.44;;;13.63;69.67
9695;BME280;4690;52.422;13.486;2023-05-20T03:37:11;102293.13;;;13.68;69.72
9695;BME280;4690;52.422;13.486;2023-05-20T03:39:37;102299.50;;;13.69;69.66
9695;BME280;4690;52.422;13.486;2023-05-20T03:42:02;102297.16;;;13.73;69.69
9695;BME280;4690;52.422;13.486;2023-05-20T03:44:28;102301.41;;;13.75;69.67
9695;BME280;4690;52.422;13.486;2023-05-20T03:46:54;102295.91;;;13.75;69.70
9695;BME280;4690;52.422;13.486;2023-05-20T03:49:20;102294.63;;;13.78;69.53
9695;BME280;4690;52.422;13.486;2023-05-20T03:51:45;102294.63;;;13.78;69.75
9695;BME280;4690;52.422;13.486;2023-05-20T03:54:11;102306.31;;;13.80;69.83
9695;BME280;4690;52.422;13.486;2023-05-20T03:56:37;102299.72;;;13.81;69.60
9695;BME280;4690;52.422;13.486;2023-05-20T03:59:03;102302.47;;;13.74;69.76
9695;BME280;4690;52.422;13.486;2023-05-20T04:01:28;102306.06;;;13.75;69.67
9695;BME280;4690;52.422;13.486;2023-05-20T04:03:54;102301.81;;;13.79;69.80
9695;BME280;4690;52.422;13.486;2023-05-20T04:06:20;102302.25;;;13.82;69.70
9695;BME280;4690;52.422;13.486;2023-05-20T04:08:46;102294.63;;;13.84;69.72
9695;BME280;4690;52.422;13.486;2023-05-20T04:11:12;102297.41;;;13.91;69.53
9695;BME280;4690;52.422;13.486;2023-05-20T04:13:38;102292.09;;;13.89;69.81
9695;BME280;4690;52.422;13.486;2023-05-20T04:16:04;102285.94;;;13.87;69.76
9695;BME280;4690;52.422;13.486;2023-05-20T04:18:30;102286.56;;;13.89;69.66
9695;BME280;4690;52.422;13.486;2023-05-20T04:20:56;102288.50;;;13.89;69.78
9695;BME280;4690;52.422;13.486;2023-05-20T04:23:24;102288.50;;;13.89;69.76
9695;BME280;4690;52.422;13.486;2023-05-20T04:25:50;102288.28;;;13.84;69.83
9695;BME280;4690;52.422;13.486;2023-05-20T04:28:15;102291.03;;;13.84;70.24
9695;BME280;4690;52.422;13.486;2023-05-20T04:30:41;102292.09;;;13.83;69.75
9695;BME280;4690;52.422;13.486;2023-05-20T04:33:09;102296.09;;;13.74;70.59
9695;BME280;4690;52.422;13.486;2023-05-20T04:35:35;102294.22;;;13.81;70.50
9695;BME280;4690;52.422;13.486;2023-05-20T04:38:02;102291.22;;;13.82;70.51
9695;BME280;4690;52.422;13.486;2023-05-20T04:40:28;102293.34;;;13.87;70.45
9695;BME280;4690;52.422;13.486;2023-05-20T04:42:54;102303.75;;;13.92;70.42
9695;BME280;4690;52.422;13.486;2023-05-20T04:45:24;102298.44;;;13.90;70.62
9695;BME280;4690;52.422;13.486;2023-05-20T04:47:50;102292.09;;;13.89;70.67
9695;BME280;4690;52.422;13.486;2023-05-20T04:50:17;102295.69;;;13.83;70.62
9695;BME280;4690;52.422;13.486;2023-05-20T04:52:44;102287.41;;;13.70;71.40
9695;BME280;4690;52.422;13.486;2023-05-20T04:55:12;102283.81;;;13.76;71.57
9695;BME280;4690;52.422;13.486;2023-05-20T04:57:39;102277.25;;;13.84;71.31
9695;BME280;4690;52.422;13.486;2023-05-20T05:00:07;102279.38;;;13.88;70.93
9695;BME280;4690;52.422;13.486;2023-05-20T05:02:35;102290.41;;;13.95;71.03
9695;BME280;4690;52.422;13.486;2023-05-20T05:05:01;102290.81;;;13.99;70.90
9695;BME280;4690;52.422;13.486;2023-05-20T05:07:26;102284.03;;;14.01;70.69
9695;BME280;4690;52.422;13.486;2023-05-20T05:09:52;102290.19;;;14.03;70.50
9695;BME280;4690;52.422;13.486;2023-05-20T05:12:18;102283.00;;;14.02;70.64
9695;BME280;4690;52.422;13.486;2023-05-20T05:14:44;102289.13;;;14.04;70.84
9695;BME280;4690;52.422;13.486;2023-05-20T05:17:09;102285.94;;;14.07;70.85
9695;BME280;4690;52.422;13.486;2023-05-20T05:19:35;102289.53;;;14.01;70.66
9695;BME280;4690;52.422;13.486;2023-05-20T05:22:01;102291.88;;;14.04;70.77
9695;BME280;4690;52.422;13.486;2023-05-20T05:24:27;102295.91;;;14.02;71.22
9695;BME280;4690;52.422;13.486;2023-05-20T05:26:54;102289.13;;;14.04;71.03
9695;BME280;4690;52.422;13.486;2023-05-20T05:29:20;102294.22;;;14.07;71.26
9695;BME280;4690;52.422;13.486;2023-05-20T05:31:46;102294.84;;;14.09;70.99
9695;BME280;4690;52.422;13.486;2023-05-20T05:34:11;102295.69;;;14.10;71.11
9695;BME280;4690;52.422;13.486;2023-05-20T05:36:39;102283.81;;;14.09;71.55
9695;BME280;4690;52.422;13.486;2023-05-20T05:39:05;102277.06;;;14.05;71.46
9695;BME280;4690;52.422;13.486;2023-05-20T05:41:31;102282.56;;;14.05;71.63
9695;BME280;4690;52.422;13.486;2023-05-20T05:43:58;102280.00;;;14.04;71.61
9695;BME280;4690;52.422;13.486;2023-05-20T05:46:24;102288.06;;;14.05;71.86
9695;BME280;4690;52.422;13.486;2023-05-20T05:48:50;102277.69;;;14.14;71.75
9695;BME280;4690;52.422;13.486;2023-05-20T05:51:16;102274.94;;;14.14;71.74
9695;BME280;4690;52.422;13.486;2023-05-20T05:53:42;102277.66;;;14.21;71.99
9695;BME280;4690;52.422;13.486;2023-05-20T05:56:08;102274.06;;;14.27;71.74
9695;BME280;4690;52.422;13.486;2023-05-20T05:58:34;102277.44;;;14.29;71.38
9695;BME280;4690;52.422;13.486;2023-05-20T06:01:00;102277.84;;;14.32;71.76
9695;BME280;4690;52.422;13.486;2023-05-20T06:03:26;102278.31;;;14.36;71.62
9695;BME280;4690;52.422;13.486;2023-05-20T06:05:54;102278.06;;;14.38;71.92
9695;BME280;4690;52.422;13.486;2023-05-20T06:08:20;102269.16;;;14.42;72.67
9695;BME280;4690;52.422;13.486;2023-05-20T06:10:49;102268.72;;;14.45;72.11
9695;BME280;4690;52.422;13.486;2023-05-20T06:13:16;102258.34;;;14.47;71.34
9695;BME280;4690;52.422;13.486;2023-05-20T06:15:42;102265.09;;;14.51;71.76
9695;BME280;4690;52.422;13.486;2023-05-20T06:18:11;102260.88;;;14.49;71.83
9695;BME280;4690;52.422;13.486;2023-05-20T06:20:37;102263.03;;;14.53;71.88
9695;BME280;4690;52.422;13.486;2023-05-20T06:23:03;102257.50;;;14.53;72.09
9695;BME280;4690;52.422;13.486;2023-05-20T06:25:28;102270.00;;;14.63;72.16
9695;BME280;4690;52.422;13.486;2023-05-20T06:27:54;102264.06;;;14.59;71.70
9695;BME280;4690;52.422;13.486;2023-05-20T06:30:20;102264.50;;;14.56;71.39
9695;BME280;4690;52.422;13.486;2023-05-20T06:32:46;102270.00;;;14.63;71.77
9695;BME280;4690;52.422;13.486;2023-05-20T06:35:11;102271.69;;;14.70;72.00
9695;BME280;4690;52.422;13.486;2023-05-20T06:37:37;102259.59;;;14.58;71.71
9695;BME280;4690;52.422;13.486;2023-05-20T06:40:03;102266.81;;;14.52;71.97
9695;BME280;4690;52.422;13.486;2023-05-20T06:42:29;102266.81;;;14.52;72.15
9695;BME280;4690;52.422;13.486;2023-05-20T06:44:55;102280.81;;;14.57;72.08
9695;BME280;4690;52.422;13.486;2023-05-20T06:47:21;102275.94;;;14.60;72.58
9695;BME280;4690;52.422;13.486;2023-05-20T06:49:47;102280.34;;;14.74;72.31
9695;BME280;4690;52.422;13.486;2023-05-20T06:52:12;102272.03;;;14.87;71.54
9695;BME280;4690;52.422;13.486;2023-05-20T06:54:38;102273.28;;;14.91;71.33
9695;BME280;4690;52.422;13.486;2023-05-20T06:57:09;102272.84;;;14.94;71.29
9695;BME280;4690;52.422;13.486;2023-05-20T06:59:36;102279.19;;;15.01;70.65
9695;BME280;4690;52.422;13.486;2023-05-20T07:02:02;102275.88;;;14.79;71.24
9695;BME280;4690;52.422;13.486;2023-05-20T07:04:29;102285.09;;;14.53;71.92
9695;BME280;4690;52.422;13.486;2023-05-20T07:06:55;102287.34;;;14.76;71.93
9695;BME280;4690;52.422;13.486;2023-05-20T07:09:20;102282.84;;;14.89;70.85
9695;BME280;4690;52.422;13.486;2023-05-20T07:11:46;102280.69;;;14.97;70.56
9695;BME280;4690;52.422;13.486;2023-05-20T07:14:12;102278.38;;;14.94;70.52
9695;BME280;4690;52.422;13.486;2023-05-20T07:16:38;102276.44;;;15.01;70.77
9695;BME280;4690;52.422;13.486;2023-05-20T07:19:04;102269.88;;;14.89;70.45
9695;BME280;4690;52.422;13.486;2023-05-20T07:21:30;102260.53;;;14.97;70.66
9695;BME280;4690;52.422;13.486;2023-05-20T07:23:56;102265.75;;;15.12;70.56
9695;BME280;4690;52.422;13.486;2023-05-20T07:26:22;102263.44;;;15.15;70.36
9695;BME280;4690;52.422;13.486;2023-05-20T07:28:47;102244.94;;;15.16;70.05
9695;BME280;4690;52.422;13.486;2023-05-20T07:31:13;102251.94;;;15.18;70.20
9695;BME280;4690;52.422;13.486;2023-05-20T07:33:39;102246.03;;;15.08;70.38
9695;BME280;4690;52.422;13.486;2023-05-20T07:36:05;102243.84;;;15.17;70.28
9695;BME280;4690;52.422;13.486;2023-05-20T07:38:31;102238.56;;;15.15;70.72
9695;BME280;4690;52.422;13.486;2023-05-20T07:40:57;102238.31;;;15.23;69.75
9695;BME280;4690;52.422;13.486;2023-05-20T07:43:23;102240.38;;;15.35;69.20
9695;BME280;4690;52.422;13.486;2023-05-20T07:45:48;102240.94;;;15.43;69.77
9695;BME280;4690;52.422;13.486;2023-05-20T07:48:15;102237.63;;;15.35;69.39
9695;BME280;4690;52.422;13.486;2023-05-20T07:50:41;102236.03;;;15.45;68.50
9695;BME280;4690;52.422;13.486;2023-05-20T07:53:06;102232.16;;;15.53;68.69
9695;BME280;4690;52.422;13.486;2023-05-20T07:55:35;102230.59;;;15.64;68.40
9695;BME280;4690;52.422;13.486;2023-05-20T07:58:02;102217.72;;;15.83;68.39
9695;BME280;4690;52.422;13.486;2023-05-20T08:00:28;102227.97;;;16.01;66.62
9695;BME280;4690;52.422;13.486;2023-05-20T08:02:54;102234.59;;;16.00;66.69
9695;BME280;4690;52.422;13.486;2023-05-20T08:05:20;102225.56;;;16.11;66.64
9695;BME280;4690;52.422;13.486;2023-05-20T08:07:47;102236.06;;;16.02;66.37
9695;BME280;4690;52.422;13.486;2023-05-20T08:10:13;102224.47;;;15.87;66.56
9695;BME280;4690;52.422;13.486;2023-05-20T08:12:39;102226.78;;;15.90;66.90
9695;BME280;4690;52.422;13.486;2023-05-20T08:15:06;102228.38;;;16.04;67.42
9695;BME280;4690;52.422;13.486;2023-05-20T08:17:32;102229.94;;;16.19;66.21
9695;BME280;4690;52.422;13.486;2023-05-20T08:19:59;102227.06;;;16.07;66.45
9695;BME280;4690;52.422;13.486;2023-05-20T08:22:25;102230.78;;;16.19;66.07
9695;BME280;4690;52.422;13.486;2023-05-20T08:24:51;102228.06;;;16.12;66.36
9695;BME280;4690;52.422;13.486;2023-05-20T08:27:17;102221.31;;;16.08;66.51
9695;BME280;4690;52.422;13.486;2023-05-20T08:29:44;102218.09;;;16.11;66.46
9695;BME280;4690;52.422;13.486;2023-05-20T08:32:10;102213.66;;;16.29;66.61
9695;BME280;4690;52.422;13.486;2023-05-20T08:34:36;102215.44;;;16.42;65.98
9695;BME280;4690;52.422;13.486;2023-05-20T08:37:01;102205.22;;;16.42;65.43
9695;BME280;4690;52.422;13.486;2023-05-20T08:39:27;102198.84;;;16.42;65.33
9695;BME280;4690;52.422;13.486;2023-05-20T08:41:53;102200.28;;;16.44;65.57
9695;BME280;4690;52.422;13.486;2023-05-20T08:44:20;102200.84;;;16.53;65.23
9695;BME280;4690;52.422;13.486;2023-05-20T08:46:47;102197.50;;;16.44;64.82
9695;BME280;4690;52.422;13.486;2023-05-20T08:49:14;102204.00;;;16.56;65.41
9695;BME280;4690;52.422;13.486;2023-05-20T08:51:39;102196.84;;;16.49;64.90
9695;BME280;4690;52.422;13.486;2023-05-20T08:54:08;102206.06;;;16.43;65.21
9695;BME280;4690;52.422;13.486;2023-05-20T08:56:35;102197.28;;;16.46;65.45
9695;BME280;4690;52.422;13.486;2023-05-20T08:59:03;102193.75;;;16.57;65.03
9695;BME280;4690;52.422;13.486;2023-05-20T09:01:28;102194.66;;;16.69;64.32
9695;BME280;4690;52.422;13.486;2023-05-20T09:03:54;102200.81;;;16.71;64.50
9695;BME280;4690;52.422;13.486;2023-05-20T09:06:20;102203.94;;;16.82;64.65
9695;BME280;4690;52.422;13.486;2023-05-20T09:08:48;102201.69;;;16.90;64.30
9695;BME280;4690;52.422;13.486;2023-05-20T09:11:15;102209.22;;;16.83;63.98
9695;BME280;4690;52.422;13.486;2023-05-20T09:13:41;102208.97;;;16.66;64.60
9695;BME280;4690;52.422;13.486;2023-05-20T09:16:11;102199.97;;;16.71;64.62
9695;BME280;4690;52.422;13.486;2023-05-20T09:18:38;102202.22;;;16.62;64.42
9695;BME280;4690;52.422;13.486;2023-05-20T09:21:05;102190.00;;;16.70;64.83
9695;BME280;4690;52.422;13.486;2023-05-20T09:23:31;102190.78;;;16.77;64.38
9695;BME280;4690;52.422;13.486;2023-05-20T09:26:00;102191.00;;;16.75;63.89
9695;BME280;4690;52.422;13.486;2023-05-20T09:28:27;102189.63;;;16.85;64.21
9695;BME280;4690;52.422;13.486;2023-05-20T09:31:00;102186.28;;;16.94;63.90
9695;BME280;4690;52.422;13.486;2023-05-20T09:33:29;102189.28;;;16.93;63.92
9695;BME280;4690;52.422;13.486;2023-05-20T09:36:09;102198.19;;;16.95;62.86
9695;BME280;4690;52.422;13.486;2023-05-20T09:38:39;102200.69;;;16.85;63.11
9695;BME280;4690;52.422;13.486;2023-05-20T09:41:12;102196.50;;;16.94;63.53
9695;BME280;4690;52.422;13.486;2023-05-20T09:43:40;102198.34;;;17.00;63.56
9695;BME280;4690;52.422;13.486;2023-05-20T09:46:07;102205.16;;;17.16;63.17
9695;BME280;4690;52.422;13.486;2023-05-20T09:48:36;102199.44;;;17.29;62.99
9695;BME280;4690;52.422;13.486;2023-05-20T09:51:04;102198.47;;;17.35;62.57
9695;BME280;4690;52.422;13.486;2023-05-20T09:53:31;102194.47;;;17.31;62.46
9695;BME280;4690;52.422;13.486;2023-05-20T09:55:57;102190.47;;;17.15;62.80
9695;BME280;4690;52.422;13.486;2023-05-20T09:58:24;102195.44;;;17.25;63.50
9695;BME280;4690;52.422;13.486;2023-05-20T10:00:51;102191.97;;;17.30;62.33
9695;BME280;4690;52.422;13.486;2023-05-20T10:03:23;102188.34;;;17.29;62.13
9695;BME280;4690;52.422;13.486;2023-05-20T10:06:27;102188.13;;;17.42;62.30
9695;BME280;4690;52.422;13.486;2023-05-20T10:15:32;102183.81;;;17.46;62.19
9695;BME280;4690;52.422;13.486;2023-05-20T10:18:24;102175.16;;;17.66;62.28
9695;BME280;4690;52.422;13.486;2023-05-20T10:20:52;102178.41;;;17.75;61.09
9695;BME280;4690;52.422;13.486;2023-05-20T10:23:30;102171.59;;;17.89;61.32
9695;BME280;4690;52.422;13.486;2023-05-20T10:25:57;102174.63;;;18.00;60.38
9695;BME280;4690;52.422;13.486;2023-05-20T10:28:37;102177.00;;;17.96;60.23
9695;BME280;4690;52.422;13.486;2023-05-20T10:31:19;102180.16;;;18.00;60.52
9695;BME280;4690;52.422;13.486;2023-05-20T10:33:46;102172.53;;;18.19;60.63
9695;BME280;4690;52.422;13.486;2023-05-20T10:36:26;102177.22;;;18.42;59.72
9695;BME280;4690;52.422;13.486;2023-05-20T10:38:58;102169.84;;;18.47;58.47
9695;BME280;4690;52.422;13.486;2023-05-20T10:41:26;102168.88;;;18.30;57.98
9695;BME280;4690;52.422;13.486;2023-05-20T10:44:04;102161.34;;;18.13;58.40
9695;BME280;4690;52.422;13.486;2023-05-20T10:46:32;102154.09;;;18.12;59.03
9695;BME280;4690;52.422;13.486;2023-05-20T10:48:58;102156.84;;;18.36;59.17
9695;BME280;4690;52.422;13.486;2023-05-20T10:51:28;102154.91;;;18.36;58.94
9695;BME280;4690;52.422;13.486;2023-05-20T10:53:56;102152.69;;;18.38;58.72
9695;BME280;4690;52.422;13.486;2023-05-20T10:56:25;102159.50;;;18.31;58.49
9695;BME280;4690;52.422;13.486;2023-05-20T10:58:53;102163.84;;;18.15;59.17
9695;BME280;4690;52.422;13.486;2023-05-20T11:01:25;102156.16;;;18.05;59.50
9695;BME280;4690;52.422;13.486;2023-05-20T11:03:53;102146.38;;;18.14;59.54
9695;BME280;4690;52.422;13.486;2023-05-20T11:06:26;102143.81;;;18.25;59.98
9695;BME280;4690;52.422;13.486;2023-05-20T11:08:53;102142.84;;;18.31;60.10
9695;BME280;4690;52.422;13.486;2023-05-20T11:11:21;102135.31;;;18.43;60.26
9695;BME280;4690;52.422;13.486;2023-05-20T11:13:50;102136.63;;;18.52;59.01
9695;BME280;4690;52.422;13.486;2023-05-20T11:16:19;102134.28;;;18.73;58.14
9695;BME280;4690;52.422;13.486;2023-05-20T11:18:48;102136.69;;;18.69;57.94
9695;BME280;4690;52.422;13.486;2023-05-20T11:21:14;102133.50;;;18.89;60.00
9695;BME280;4690;52.422;13.486;2023-05-20T11:23:41;102126.09;;;18.95;57.19
9695;BME280;4690;52.422;13.486;2023-05-20T11:26:07;102118.69;;;19.00;58.01
9695;BME280;4690;52.422;13.486;2023-05-20T11:28:34;102123.81;;;19.20;57.58
9695;BME280;4690;52.422;13.486;2023-05-20T11:31:00;102116.53;;;19.19;56.75
9695;BME280;4690;52.422;13.486;2023-05-20T11:33:26;102127.66;;;19.36;56.24
9695;BME280;4690;52.422;13.486;2023-05-20T11:35:53;102118.25;;;19.54;56.90
9695;BME280;4690;52.422;13.486;2023-05-20T11:38:20;102124.50;;;19.78;57.50
9695;BME280;4690;52.422;13.486;2023-05-20T11:40:53;102113.78;;;19.53;56.85
9695;BME280;4690;52.422;13.486;2023-05-20T11:43:21;102108.50;;;19.68;55.93
9695;BME280;4690;52.422;13.486;2023-05-20T11:45:57;102114.56;;;19.82;55.18
9695;BME280;4690;52.422;13.486;2023-05-20T11:48:26;102111.94;;;19.76;55.73
9695;BME280;4690;52.422;13.486;2023-05-20T11:50:54;102109.72;;;19.95;55.84
9695;BME280;4690;52.422;13.486;2023-05-20T11:53:22;102112.59;;;19.83;54.91
9695;BME280;4690;52.422;13.486;2023-05-20T11:55:50;102102.72;;;19.92;54.71
9695;BME280;4690;52.422;13.486;2023-05-20T11:58:35;102094.41;;;19.75;54.80
9695;BME280;4690;52.422;13.486;2023-05-20T12:01:00;102092.22;;;19.60;55.63
9695;BME280;4690;52.422;13.486;2023-05-20T12:03:26;102091.38;;;19.60;56.93
9695;BME280;4690;52.422;13.486;2023-05-20T12:05:52;102083.50;;;19.74;56.76
9695;BME280;4690;52.422;13.486;2023-05-20T12:08:18;102084.38;;;19.74;55.82
9695;BME280;4690;52.422;13.486;2023-05-20T12:10:44;102089.00;;;19.85;55.24
9695;BME280;4690;52.422;13.486;2023-05-20T12:13:10;102081.56;;;19.91;54.96
9695;BME280;4690;52.422;13.486;2023-05-20T12:15:39;102087.47;;;20.17;55.49
9695;BME280;4690;52.422;13.486;2023-05-20T12:18:05;102079.38;;;20.37;55.88
9695;BME280;4690;52.422;13.486;2023-05-20T12:20:31;102079.69;;;20.41;53.60
9695;BME280;4690;52.422;13.486;2023-05-20T12:22:59;102076.00;;;20.35;52.89
9695;BME280;4690;52.422;13.486;2023-05-20T12:25:26;102070.94;;;20.32;53.18
9695;BME280;4690;52.422;13.486;2023-05-20T12:27:52;102071.91;;;20.43;52.65
9695;BME280;4690;52.422;13.486;2023-05-20T12:30:22;102067.78;;;20.45;53.06
9695;BME280;4690;52.422;13.486;2023-05-20T12:32:49;102064.34;;;20.60;53.70
9695;BME280;4690;52.422;13.486;2023-05-20T12:35:18;102061.44;;;20.50;52.98
9695;BME280;4690;52.422;13.486;2023-05-20T12:37:44;102056.19;;;20.31;53.45
9695;BME280;4690;52.422;13.486;2023-05-20T12:40:11;102060.25;;;20.46;53.53
9695;BME280;4690;52.422;13.486;2023-05-20T12:42:40;102048.22;;;20.62;53.17
9695;BME280;4690;52.422;13.486;2023-05-20T12:45:08;102041.34;;;20.75;52.73
9695;BME280;4690;52.422;13.486;2023-05-20T12:47:34;102046.16;;;20.79;52.73
9695;BME280;4690;52.422;13.486;2023-05-20T12:50:02;102041.34;;;20.70;52.82
9695;BME280;4690;52.422;13.486;2023-05-20T12:52:28;102033.22;;;21.00;53.52
9695;BME280;4690;52.422;13.486;2023-05-20T12:54:55;102045.91;;;21.13;51.80
9695;BME280;4690;52.422;13.486;2023-05-20T12:57:24;102035.19;;;21.00;51.26
9695;BME280;4690;52.422;13.486;2023-05-20T12:59:50;102035.19;;;21.00;51.77
9695;BME280;4690;52.422;13.486;2023-05-20T13:02:18;102031.09;;;20.75;51.97
9695;BME280;4690;52.422;13.486;2023-05-20T13:04:44;102024.66;;;20.75;52.59
9695;BME280;4690;52.422;13.486;2023-05-20T13:07:10;102016.88;;;20.77;52.08
9695;BME280;4690;52.422;13.486;2023-05-20T13:09:35;102017.28;;;20.91;52.00
9695;BME280;4690;52.422;13.486;2023-05-20T13:12:01;102016.69;;;20.89;51.93
9695;BME280;4690;52.422;13.486;2023-05-20T13:14:27;102016.44;;;20.90;51.87